Time;durP1;ratioP1;P1;durP2;ratioP2;P2;SDS_P1;SDS_P2;PMS_P1;PMS_P2;Temp;Humidity;BMP_temperature;BMP_pressure;BME280_temperature;BME280_humidity;BME280_pressure;Samples;Min_cycle;Max_cycle;Signal;HPM_P1;HPM_P2
2023/11/21 00:01:26;;;;;;;13.93;2.15;;;9.10;99.90;;;;;;5048997;28;20158;-64
2023/11/21 00:03:55;;;;;;;6.90;1.75;;;9.10;99.90;;;;;;5026520;28;20055;-64
2023/11/21 00:06:20;;;;;;;7.05;1.83;;;9.10;99.90;;;;;;5040369;28;20491;-64
2023/11/21 00:08:46;;;;;;;7.15;2.33;;;9.10;99.90;;;;;;5059606;28;20060;-64
2023/11/21 00:11:12;;;;;;;6.15;1.50;;;9.00;99.90;;;;;;5034105;28;20446;-64
2023/11/21 00:13:38;;;;;;;11.57;1.55;;;9.10;99.90;;;;;;5048994;28;20052;-64
2023/11/21 00:16:04;;;;;;;8.40;1.80;;;9.10;99.90;;;;;;5049852;28;20045;-64
2023/11/21 00:18:30;;;;;;;14.88;2.65;;;9.00;99.90;;;;;;5048912;28;20478;-64
2023/11/21 00:20:58;;;;;;;5.85;1.75;;;9.00;99.90;;;;;;5048496;28;20037;-64
2023/11/21 00:23:24;;;;;;;17.75;2.20;;;9.00;99.90;;;;;;5030820;28;20045;-64
2023/11/21 00:25:50;;;;;;;9.07;2.10;;;9.00;99.90;;;;;;5036652;28;20060;-64
2023/11/21 00:28:16;;;;;;;9.40;2.30;;;9.00;99.90;;;;;;5049267;28;20124;-64
2023/11/21 00:30:41;;;;;;;11.18;2.00;;;9.00;99.90;;;;;;5048562;28;20603;-64
2023/11/21 00:33:07;;;;;;;10.23;1.48;;;9.00;99.90;;;;;;5048246;28;20127;-64
2023/11/21 00:35:33;;;;;;;8.27;2.45;;;9.00;99.90;;;;;;5047951;28;20049;-64
2023/11/21 00:37:59;;;;;;;5.72;2.13;;;9.00;99.90;;;;;;5052081;28;20033;-64
2023/11/21 00:40:24;;;;;;;8.93;2.22;;;8.90;99.90;;;;;;5050912;28;20055;-64
2023/11/21 00:42:50;;;;;;;5.72;2.20;;;8.90;99.90;;;;;;5033513;28;20400;-64
2023/11/21 00:45:16;;;;;;;8.65;1.92;;;8.90;99.90;;;;;;5051125;28;20055;-64
2023/11/21 00:47:42;;;;;;;2.55;1.50;;;8.90;99.90;;;;;;5040127;28;20472;-64
2023/11/21 00:50:09;;;;;;;5.93;1.83;;;8.90;99.90;;;;;;5058869;28;20482;-64
2023/11/21 00:52:35;;;;;;;10.60;1.90;;;8.90;99.90;;;;;;5052243;28;20045;-64
2023/11/21 00:55:02;;;;;;;13.63;2.10;;;8.90;99.90;;;;;;5032845;28;20541;-64
2023/11/21 00:57:28;;;;;;;5.15;2.00;;;9.00;99.90;;;;;;5041151;28;20479;-64
2023/11/21 00:59:55;;;;;;;9.68;1.90;;;9.00;99.90;;;;;;5047394;28;20527;-64
2023/11/21 01:02:20;;;;;;;8.00;2.50;;;9.00;99.90;;;;;;5047878;28;20029;-64
2023/11/21 01:04:47;;;;;;;12.88;2.45;;;9.00;99.90;;;;;;5047723;28;20098;-64
2023/11/21 01:07:13;;;;;;;11.95;2.40;;;9.00;99.90;;;;;;5048743;28;20040;-64
2023/11/21 01:09:39;;;;;;;8.05;2.65;;;9.00;99.90;;;;;;5047693;28;20132;-64
2023/11/21 01:12:05;;;;;;;14.52;2.70;;;9.00;99.90;;;;;;5030041;28;20052;-64
2023/11/21 01:14:31;;;;;;;8.80;2.28;;;9.00;99.90;;;;;;5043615;28;20048;-64
2023/11/21 01:16:56;;;;;;;5.07;2.20;;;9.00;99.90;;;;;;5047975;28;20148;-64
2023/11/21 01:19:22;;;;;;;11.63;2.42;;;9.00;99.90;;;;;;5047743;28;20044;-64
2023/11/21 01:21:48;;;;;;;6.95;1.95;;;9.00;99.90;;;;;;5047496;28;20411;-64
2023/11/21 01:24:13;;;;;;;4.70;2.00;;;9.00;99.90;;;;;;5047565;28;20107;-64
2023/11/21 01:26:39;;;;;;;18.20;2.78;;;9.00;99.90;;;;;;5047332;28;20045;-64
2023/11/21 01:29:05;;;;;;;13.02;2.75;;;9.10;99.90;;;;;;5049665;28;20052;-64
2023/11/21 01:31:31;;;;;;;11.07;2.33;;;9.00;99.90;;;;;;5032136;28;20410;-64
2023/11/21 01:33:57;;;;;;;11.30;2.20;;;9.00;99.90;;;;;;5047239;28;20037;-64
2023/11/21 01:36:23;;;;;;;9.07;2.20;;;9.10;99.90;;;;;;5047517;28;20045;-64
2023/11/21 01:38:48;;;;;;;6.13;2.53;;;9.10;99.90;;;;;;5029357;28;20045;-64
2023/11/21 01:41:14;;;;;;;8.75;2.47;;;9.10;99.90;;;;;;5047247;28;20116;-64
2023/11/21 01:43:41;;;;;;;11.23;2.53;;;9.10;99.90;;;;;;5047198;28;20390;-64
2023/11/21 01:46:08;;;;;;;13.23;2.85;;;9.10;99.90;;;;;;5047852;28;20048;-64
2023/11/21 01:48:34;;;;;;;14.13;3.00;;;9.10;99.90;;;;;;5047048;28;20434;-64
2023/11/21 01:51:01;;;;;;;11.10;2.67;;;9.10;99.90;;;;;;5047167;28;20072;-64
2023/11/21 01:53:28;;;;;;;9.05;2.70;;;9.10;99.90;;;;;;5029200;28;20529;-64
2023/11/21 01:55:55;;;;;;;16.70;3.13;;;9.20;99.90;;;;;;5047528;28;20040;-64
2023/11/21 01:58:21;;;;;;;16.17;2.45;;;9.10;99.90;;;;;;5047108;28;20103;-64
2023/11/21 02:00:50;;;;;;;7.93;2.72;;;9.10;99.90;;;;;;5047111;28;20048;-64
2023/11/21 02:03:16;;;;;;;9.82;2.50;;;9.10;99.90;;;;;;5047831;28;20051;-64
2023/11/21 02:05:42;;;;;;;14.93;2.65;;;9.10;99.90;;;;;;5046741;28;20049;-64
2023/11/21 02:08:09;;;;;;;8.35;2.15;;;9.10;99.90;;;;;;5047331;28;20048;-64
2023/11/21 02:10:36;;;;;;;11.25;2.30;;;9.10;99.90;;;;;;5049828;28;20051;-64
2023/11/21 02:13:02;;;;;;;12.13;2.53;;;9.10;99.90;;;;;;5046599;28;20524;-64
2023/11/21 02:15:29;;;;;;;8.45;2.05;;;9.10;99.90;;;;;;5047048;28;20081;-65
2023/11/21 02:17:55;;;;;;;9.20;2.17;;;9.10;99.90;;;;;;5046503;28;20454;-64
2023/11/21 02:20:22;;;;;;;12.00;2.70;;;9.20;99.90;;;;;;5046782;28;20049;-64
2023/11/21 02:22:57;;;;;;;11.18;2.05;;;9.10;99.90;;;;;;5046407;28;20099;-64
2023/11/21 02:25:25;;;;;;;9.68;2.38;;;9.10;99.90;;;;;;5046881;28;20060;-64
2023/11/21 02:27:51;;;;;;;16.38;2.53;;;9.10;99.90;;;;;;5046649;28;20067;-64
2023/11/21 02:30:17;;;;;;;13.00;2.58;;;9.10;99.90;;;;;;5046300;28;20045;-64
2023/11/21 02:32:43;;;;;;;11.57;2.67;;;9.10;99.90;;;;;;5047054;28;20059;-64
2023/11/21 02:35:09;;;;;;;13.88;2.58;;;9.10;99.90;;;;;;5029005;28;20395;-64
2023/11/21 02:37:35;;;;;;;14.35;2.33;;;9.10;99.90;;;;;;5029050;28;20041;-64
2023/11/21 02:40:05;;;;;;;13.68;2.47;;;9.10;99.90;;;;;;5045941;28;20188;-64
2023/11/21 02:42:30;;;;;;;10.77;2.53;;;9.10;99.90;;;;;;5048495;28;20045;-64
2023/11/21 02:44:56;;;;;;;11.05;2.20;;;9.10;99.90;;;;;;5028314;28;20045;-64
2023/11/21 02:47:23;;;;;;;13.88;2.75;;;9.10;99.90;;;;;;5046248;28;20386;-67
2023/11/21 02:49:50;;;;;;;15.07;2.72;;;9.10;99.90;;;;;;5046121;28;20091;-65
2023/11/21 02:52:16;;;;;;;10.43;2.45;;;9.10;99.90;;;;;;5046023;28;20577;-67
2023/11/21 02:54:42;;;;;;;21.05;2.78;;;9.10;99.90;;;;;;5046887;28;20084;-64
2023/11/21 02:57:08;;;;;;;6.20;2.33;;;9.10;99.90;;;;;;5045885;28;20090;-64
2023/11/21 02:59:34;;;;;;;14.13;3.13;;;9.10;99.90;;;;;;5047106;28;20492;-64
2023/11/21 03:02:00;;;;;;;15.15;3.05;;;9.10;99.90;;;;;;5033956;28;20055;-64
2023/11/21 03:04:26;;;;;;;17.52;2.92;;;9.10;99.90;;;;;;5056139;28;20052;-64
2023/11/21 03:06:52;;;;;;;12.00;2.33;;;9.20;99.90;;;;;;5032112;28;20091;-72
2023/11/21 03:09:17;;;;;;;19.77;2.92;;;9.10;99.90;;;;;;5045922;28;20116;-64
2023/11/21 03:11:43;;;;;;;14.02;2.92;;;9.10;99.90;;;;;;5050463;28;20129;-64
2023/11/21 03:14:09;;;;;;;14.05;3.83;;;9.10;99.90;;;;;;5031628;28;20045;-64
2023/11/21 03:16:35;;;;;;;14.10;3.40;;;9.10;99.90;;;;;;5050715;28;20468;-64
2023/11/21 03:19:01;;;;;;;12.18;3.20;;;9.10;99.90;;;;;;5031495;28;20045;-64
2023/11/21 03:21:27;;;;;;;19.80;3.35;;;9.10;99.90;;;;;;5052370;28;20158;-64
2023/11/21 03:23:52;;;;;;;21.50;3.17;;;9.10;99.90;;;;;;5057759;28;20514;-64
2023/11/21 03:26:18;;;;;;;21.33;3.42;;;9.20;99.90;;;;;;5049489;28;20536;-64
2023/11/21 03:28:46;;;;;;;20.88;3.60;;;9.10;99.90;;;;;;5049944;28;20044;-64
2023/11/21 03:31:11;;;;;;;32.45;3.78;;;9.10;99.90;;;;;;5049503;28;20080;-64
2023/11/21 03:33:37;;;;;;;32.90;3.83;;;9.20;99.90;;;;;;5050280;28;20068;-64
2023/11/21 03:36:03;;;;;;;18.65;3.58;;;9.10;99.90;;;;;;5057651;28;20486;-64
2023/11/21 03:38:29;;;;;;;20.23;3.92;;;9.20;99.90;;;;;;5050079;28;20403;-64
2023/11/21 03:40:55;;;;;;;33.08;4.65;;;9.10;99.90;;;;;;5031702;28;20053;-64
2023/11/21 03:43:20;;;;;;;29.42;3.95;;;9.10;99.90;;;;;;5031437;28;20191;-65
2023/11/21 03:45:46;;;;;;;22.30;4.15;;;9.20;99.90;;;;;;5049953;28;20053;-64
2023/11/21 03:48:13;;;;;;;21.83;4.53;;;9.20;99.90;;;;;;5049153;28;20049;-64
2023/11/21 03:50:38;;;;;;;25.98;4.40;;;9.10;99.90;;;;;;5049635;28;20033;-64
2023/11/21 03:53:04;;;;;;;19.95;4.05;;;9.20;99.90;;;;;;5049033;28;20044;-64
2023/11/21 03:55:31;;;;;;;25.10;4.18;;;9.20;99.90;;;;;;5049671;28;20166;-65
2023/11/21 03:57:58;;;;;;;29.63;4.35;;;9.10;99.90;;;;;;5031759;28;20566;-64
2023/11/21 04:00:24;;;;;;;22.15;4.25;;;9.20;99.90;;;;;;5049185;28;20033;-64
2023/11/21 04:02:51;;;;;;;23.15;4.80;;;9.10;99.90;;;;;;5055096;28;20199;-64
2023/11/21 04:05:17;;;;;;;20.95;4.90;;;9.10;99.90;;;;;;5048574;28;20091;-64
2023/11/21 04:07:43;;;;;;;12.60;4.35;;;9.10;99.90;;;;;;5049205;28;20142;-64
2023/11/21 04:10:12;;;;;;;13.98;4.43;;;9.10;99.90;;;;;;5031180;28;20037;-64
2023/11/21 04:12:38;;;;;;;23.35;4.70;;;9.10;99.90;;;;;;5049648;28;20072;-64
2023/11/21 04:15:04;;;;;;;21.42;5.03;;;9.20;99.90;;;;;;5048872;28;20139;-64
2023/11/21 04:17:30;;;;;;;14.02;5.22;;;9.20;99.90;;;;;;5031016;28;20052;-64
2023/11/21 04:19:56;;;;;;;15.68;5.00;;;9.10;99.90;;;;;;5030662;28;20059;-64
2023/11/21 04:22:22;;;;;;;27.05;5.00;;;9.10;99.90;;;;;;5048288;28;20037;-64
2023/11/21 04:24:49;;;;;;;23.45;5.20;;;9.10;99.90;;;;;;5027540;28;20128;-64
2023/11/21 04:27:14;;;;;;;27.02;5.50;;;9.10;99.90;;;;;;5028478;28;20059;-64
2023/11/21 04:29:41;;;;;;;21.20;4.68;;;9.10;99.90;;;;;;5029326;28;20041;-64
2023/11/21 04:32:07;;;;;;;24.80;4.60;;;9.10;99.90;;;;;;5028497;28;20084;-64
2023/11/21 04:34:34;;;;;;;27.58;4.85;;;9.10;99.90;;;;;;5029050;28;20422;-65
2023/11/21 04:37:00;;;;;;;14.45;3.92;;;9.20;99.90;;;;;;5028340;28;20053;-64
2023/11/21 04:39:26;;;;;;;18.00;4.43;;;9.20;99.90;;;;;;5028745;28;20056;-64
2023/11/21 04:41:52;;;;;;;10.50;3.78;;;9.20;99.90;;;;;;5028783;28;20045;-64
2023/11/21 04:44:17;;;;;;;15.85;4.63;;;9.10;99.90;;;;;;5026982;28;20049;-64
2023/11/21 04:46:43;;;;;;;13.52;4.60;;;9.20;99.90;;;;;;5027312;28;20041;-64
2023/11/21 04:49:10;;;;;;;13.05;5.03;;;9.20;99.90;;;;;;5027012;28;20053;-64
2023/11/21 04:51:36;;;;;;;14.23;5.00;;;9.20;99.90;;;;;;5028640;28;20256;-64
2023/11/21 04:54:02;;;;;;;11.88;5.43;;;9.30;99.90;;;;;;5018639;28;20063;-64
2023/11/21 04:56:28;;;;;;;10.55;5.88;;;9.30;99.90;;;;;;5033948;28;20120;-64
2023/11/21 04:58:54;;;;;;;10.80;5.78;;;9.20;99.90;;;;;;5028225;28;20538;-64
2023/11/21 05:01:20;;;;;;;14.07;6.07;;;9.30;99.90;;;;;;5029948;28;20559;-64
2023/11/21 05:03:47;;;;;;;10.05;6.20;;;9.20;99.90;;;;;;5029639;28;20495;-64
2023/11/21 05:06:14;;;;;;;12.77;5.72;;;9.20;99.90;;;;;;5026898;28;20520;-64
2023/11/21 05:08:39;;;;;;;12.75;5.57;;;9.20;99.90;;;;;;5027849;28;20603;-64
2023/11/21 05:11:07;;;;;;;14.25;6.13;;;9.30;99.90;;;;;;5027662;28;20116;-64
2023/11/21 05:13:34;;;;;;;11.57;5.22;;;9.20;99.90;;;;;;5034396;28;20077;-64
2023/11/21 05:16:00;;;;;;;14.65;5.68;;;9.30;99.90;;;;;;5027730;28;20047;-64
2023/11/21 05:18:29;;;;;;;8.77;5.75;;;9.30;99.90;;;;;;5027601;28;20104;-64
2023/11/21 05:20:56;;;;;;;11.95;6.22;;;9.30;99.90;;;;;;5026481;28;20053;-64
2023/11/21 05:23:22;;;;;;;16.80;7.05;;;9.20;99.90;;;;;;5027697;28;20084;-64
2023/11/21 05:25:47;;;;;;;16.30;8.00;;;9.20;99.90;;;;;;5046910;28;20442;-65
2023/11/21 05:28:13;;;;;;;11.95;7.13;;;9.20;99.90;;;;;;5047172;28;20073;-64
2023/11/21 05:30:39;;;;;;;13.82;7.57;;;9.20;99.90;;;;;;5047844;28;20048;-64
2023/11/21 05:33:05;;;;;;;12.68;6.68;;;9.20;99.90;;;;;;5031282;28;20086;-64
2023/11/21 05:35:31;;;;;;;13.77;7.13;;;9.20;99.90;;;;;;5047321;28;20053;-64
2023/11/21 05:37:57;;;;;;;15.25;7.45;;;9.10;99.90;;;;;;5047599;28;20469;-65
2023/11/21 05:40:23;;;;;;;13.02;7.45;;;9.10;99.90;;;;;;5047372;28;20351;-64
2023/11/21 05:42:48;;;;;;;22.60;8.43;;;9.00;99.90;;;;;;5047751;28;20045;-64
2023/11/21 05:45:15;;;;;;;12.05;7.40;;;9.00;99.90;;;;;;5047503;28;20048;-65
2023/11/21 05:47:45;;;;;;;13.38;7.47;;;9.10;99.90;;;;;;5047235;28;20048;-64
2023/11/21 05:50:16;;;;;;;13.27;7.05;;;9.00;99.90;;;;;;5046726;28;20167;-64
2023/11/21 05:52:43;;;;;;;16.20;7.88;;;9.00;99.90;;;;;;5047115;28;20410;-64
2023/11/21 05:55:09;;;;;;;10.82;7.43;;;9.00;99.90;;;;;;5040224;28;20055;-64
2023/11/21 05:57:38;;;;;;;11.80;7.07;;;9.00;99.90;;;;;;5046723;28;20029;-64
2023/11/21 06:00:11;;;;;;;11.95;7.38;;;9.00;99.90;;;;;;5047163;28;20060;-64
2023/11/21 06:02:40;;;;;;;13.75;7.40;;;8.90;99.90;;;;;;5049289;28;20435;-64
2023/11/21 06:05:10;;;;;;;12.88;7.80;;;9.00;99.90;;;;;;5030069;28;20098;-64
2023/11/21 06:07:36;;;;;;;15.23;7.28;;;9.00;99.90;;;;;;5046798;28;20469;-64
2023/11/21 06:10:09;;;;;;;12.18;7.35;;;8.90;99.90;;;;;;5047226;28;20119;-64
2023/11/21 06:12:35;;;;;;;14.68;8.93;;;8.80;99.90;;;;;;5029180;28;20043;-64
2023/11/21 06:15:05;;;;;;;16.02;9.27;;;8.90;99.90;;;;;;5047147;28;20048;-64
2023/11/21 06:17:31;;;;;;;12.75;7.82;;;8.90;99.90;;;;;;5046849;28;20045;-64
2023/11/21 06:19:57;;;;;;;13.27;7.97;;;8.70;99.90;;;;;;5051923;28;20502;-64
2023/11/21 06:22:23;;;;;;;16.50;8.90;;;8.80;99.90;;;;;;5053428;28;20052;-64
2023/11/21 06:24:49;;;;;;;18.15;8.15;;;8.80;99.90;;;;;;5024473;28;20060;-64
2023/11/21 06:27:15;;;;;;;11.98;7.63;;;8.80;99.90;;;;;;5027277;28;20080;-64
2023/11/21 06:29:42;;;;;;;13.02;8.18;;;8.70;99.90;;;;;;5026122;28;20057;-64
2023/11/21 06:32:08;;;;;;;12.52;7.75;;;8.70;99.90;;;;;;5027295;28;20425;-64
2023/11/21 06:34:34;;;;;;;11.63;7.82;;;8.70;99.90;;;;;;5026929;28;20737;-64
2023/11/21 06:36:59;;;;;;;10.23;7.25;;;8.60;99.90;;;;;;5026950;28;20125;-65
2023/11/21 06:39:25;;;;;;;13.75;8.77;;;8.60;99.90;;;;;;5027077;28;20049;-64
2023/11/21 06:41:51;;;;;;;11.15;6.97;;;8.60;99.90;;;;;;5024770;28;20050;-64
2023/11/21 06:44:16;;;;;;;12.00;7.00;;;8.60;99.90;;;;;;5027223;28;20081;-64
2023/11/21 06:46:42;;;;;;;11.00;7.78;;;8.60;99.90;;;;;;5029966;28;20451;-64
2023/11/21 06:49:08;;;;;;;10.50;7.78;;;8.60;99.90;;;;;;5033788;28;20076;-65
2023/11/21 06:51:34;;;;;;;14.77;9.20;;;8.50;99.90;;;;;;5030875;28;20411;-64
2023/11/21 06:54:00;;;;;;;12.73;9.02;;;8.50;99.90;;;;;;5030699;28;20041;-64
2023/11/21 06:56:26;;;;;;;18.83;9.38;;;8.50;99.90;;;;;;5029690;28;20439;-64
2023/11/21 06:58:54;;;;;;;18.13;9.35;;;8.50;99.90;;;;;;5030387;28;20435;-64
2023/11/21 07:01:20;;;;;;;16.60;9.95;;;8.50;99.90;;;;;;5015144;28;20084;-64
2023/11/21 07:03:46;;;;;;;22.05;10.48;;;8.40;99.90;;;;;;5032970;28;20087;-65
2023/11/21 07:06:11;;;;;;;23.17;11.70;;;8.40;99.90;;;;;;5038962;28;20049;-64
2023/11/21 07:08:37;;;;;;;18.98;10.93;;;8.40;99.90;;;;;;5028585;28;20048;-64
2023/11/21 07:11:07;;;;;;;16.52;10.75;;;8.40;99.90;;;;;;5030094;28;20038;-64
2023/11/21 07:13:32;;;;;;;18.52;10.93;;;8.40;99.90;;;;;;5030741;28;20049;-80
2023/11/21 07:15:59;;;;;;;14.82;9.88;;;8.40;99.90;;;;;;5029313;28;20030;-64
2023/11/21 07:18:25;;;;;;;19.63;10.38;;;8.40;99.90;;;;;;5030997;28;20045;-64
2023/11/21 07:20:51;;;;;;;22.00;11.73;;;8.40;99.90;;;;;;5029220;28;20049;-65
2023/11/21 07:23:17;;;;;;;16.95;10.55;;;8.40;99.90;;;;;;5030481;28;20045;-64
2023/11/21 07:25:43;;;;;;;19.73;11.93;;;8.40;99.90;;;;;;5043731;28;20056;-64
2023/11/21 07:28:09;;;;;;;20.55;12.30;;;8.40;99.90;;;;;;5049877;28;20045;-64
2023/11/21 07:30:35;;;;;;;16.90;11.75;;;8.40;99.90;;;;;;5049769;28;20538;-64
2023/11/21 07:33:00;;;;;;;20.77;11.07;;;8.40;99.90;;;;;;5057677;28;20487;-64
2023/11/21 07:35:26;;;;;;;16.38;11.07;;;8.40;99.90;;;;;;5050144;28;20118;-64
2023/11/21 07:37:52;;;;;;;18.90;10.07;;;8.40;99.90;;;;;;5052080;28;20056;-66
2023/11/21 07:40:18;;;;;;;15.70;10.50;;;8.40;99.90;;;;;;5038045;28;20044;-65
2023/11/21 07:42:43;;;;;;;11.88;8.23;;;8.40;99.90;;;;;;5058005;28;20040;-66
2023/11/21 07:45:09;;;;;;;10.48;7.20;;;8.40;99.90;;;;;;5031847;28;20069;-66
2023/11/21 07:47:35;;;;;;;11.43;7.20;;;8.40;99.90;;;;;;5049426;28;20041;-65
2023/11/21 07:50:03;;;;;;;9.43;6.70;;;8.30;99.90;;;;;;5049221;28;20055;-66
2023/11/21 07:52:29;;;;;;;8.95;6.40;;;8.30;99.90;;;;;;5049930;28;20418;-64
2023/11/21 07:54:54;;;;;;;8.07;6.13;;;8.30;99.90;;;;;;5048690;28;20044;-64
2023/11/21 07:57:20;;;;;;;9.30;6.75;;;8.30;99.90;;;;;;5059981;28;20135;-64
2023/11/21 07:59:46;;;;;;;7.50;6.22;;;8.20;99.90;;;;;;5048412;28;20049;-65
2023/11/21 08:02:12;;;;;;;8.32;6.88;;;8.20;99.90;;;;;;5051763;28;20505;-64
2023/11/21 08:04:37;;;;;;;10.25;6.22;;;8.20;99.90;;;;;;5049156;28;20037;-64
2023/11/21 08:07:03;;;;;;;7.28;5.75;;;8.20;99.90;;;;;;5032224;28;20394;-73
2023/11/21 08:09:29;;;;;;;7.57;6.15;;;8.20;99.90;;;;;;5057502;28;20070;-64
2023/11/21 08:11:56;;;;;;;6.05;5.35;;;8.20;99.90;;;;;;5049827;28;20430;-64
2023/11/21 08:14:25;;;;;;;9.48;6.30;;;8.20;99.90;;;;;;5039314;28;20045;-64
2023/11/21 08:16:51;;;;;;;7.63;5.90;;;8.30;99.90;;;;;;5057808;28;20522;-64
2023/11/21 08:19:18;;;;;;;6.90;5.72;;;8.20;99.90;;;;;;5057367;28;20147;-64
2023/11/21 08:21:44;;;;;;;9.43;6.43;;;8.30;99.90;;;;;;5038337;28;20391;-64
2023/11/21 08:24:10;;;;;;;7.90;6.30;;;8.20;99.90;;;;;;5038756;28;20044;-64
2023/11/21 08:26:39;;;;;;;8.27;6.25;;;8.20;99.90;;;;;;5063843;28;20123;-64
2023/11/21 08:29:06;;;;;;;10.82;6.15;;;8.20;99.90;;;;;;5052636;28;20410;-64
2023/11/21 08:31:32;;;;;;;9.90;6.18;;;8.20;99.90;;;;;;5060766;28;20035;-64
2023/11/21 08:33:58;;;;;;;9.93;6.97;;;8.10;99.90;;;;;;5053553;28;20049;-65
2023/11/21 08:36:24;;;;;;;8.85;5.93;;;8.20;99.90;;;;;;5038604;28;20395;-64
2023/11/21 08:38:54;;;;;;;7.25;5.72;;;8.20;99.90;;;;;;5053273;28;20119;-64
2023/11/21 08:41:23;;;;;;;6.95;5.70;;;8.20;99.90;;;;;;5054681;28;20036;-64
2023/11/21 08:43:50;;;;;;;7.65;5.10;;;8.10;99.90;;;;;;5053903;28;20114;-63
2023/11/21 08:46:19;;;;;;;8.38;5.03;;;8.10;99.90;;;;;;5018486;28;20049;-63
2023/11/21 08:48:45;;;;;;;7.75;5.85;;;8.20;99.90;;;;;;5056221;28;20453;-63
2023/11/21 08:51:11;;;;;;;8.98;5.78;;;8.20;99.90;;;;;;5035350;28;20053;-63
2023/11/21 08:53:37;;;;;;;7.00;5.30;;;8.20;99.90;;;;;;5059204;28;20475;-63
2023/11/21 08:56:04;;;;;;;6.03;5.30;;;8.20;99.90;;;;;;5063498;28;20051;-63
2023/11/21 08:58:32;;;;;;;7.45;5.40;;;8.20;99.90;;;;;;5037148;28;20053;-63
2023/11/21 09:00:57;;;;;;;8.48;5.07;;;8.10;99.90;;;;;;5050588;28;20430;-63
2023/11/21 09:03:23;;;;;;;7.25;5.50;;;8.20;99.90;;;;;;5051816;28;20037;-63
2023/11/21 09:05:49;;;;;;;7.40;4.93;;;8.10;99.90;;;;;;5054925;28;20055;-63
2023/11/21 09:08:15;;;;;;;4.93;4.32;;;8.10;99.90;;;;;;5050892;28;20044;-63
2023/11/21 09:10:43;;;;;;;5.68;4.28;;;8.00;99.90;;;;;;5053295;28;20395;-63
2023/11/21 09:13:10;;;;;;;7.57;4.97;;;8.00;99.90;;;;;;5053983;28;20620;-63
2023/11/21 09:15:35;;;;;;;5.60;4.00;;;8.00;99.90;;;;;;5036370;28;20106;-63
2023/11/21 09:18:01;;;;;;;5.95;4.80;;;7.90;99.90;;;;;;5029643;28;20052;-62
2023/11/21 09:20:28;;;;;;;4.63;4.10;;;7.90;99.90;;;;;;5048002;28;20122;-62
2023/11/21 09:22:55;;;;;;;6.30;4.63;;;7.90;99.90;;;;;;5047161;28;20487;-62
2023/11/21 09:25:21;;;;;;;5.47;4.20;;;7.90;99.90;;;;;;5047556;28;20570;-62
2023/11/21 09:27:47;;;;;;;6.03;4.13;;;7.90;99.90;;;;;;5047654;28;20120;-62
2023/11/21 09:30:14;;;;;;;5.15;4.18;;;7.90;99.90;;;;;;5046821;28;20047;-62
2023/11/21 09:32:40;;;;;;;6.60;4.45;;;7.90;99.90;;;;;;5048492;28;20055;-62
2023/11/21 09:35:08;;;;;;;5.55;4.28;;;7.90;99.90;;;;;;5046854;28;20041;-62
2023/11/21 09:37:34;;;;;;;6.00;3.63;;;7.90;99.90;;;;;;5047459;28;20085;-62
2023/11/21 09:39:59;;;;;;;5.60;4.65;;;7.80;99.90;;;;;;5064054;28;20510;-62
2023/11/21 09:42:54;;;;;;;6.38;4.38;;;7.80;99.90;;;;;;5063676;28;20055;-62
2023/11/21 09:45:28;;;;;;;4.05;3.38;;;7.90;99.90;;;;;;5034108;28;20407;-62
2023/11/21 09:47:55;;;;;;;4.75;4.20;;;7.90;99.90;;;;;;5056015;28;20167;-62
2023/11/21 09:50:22;;;;;;;5.00;3.95;;;7.90;99.90;;;;;;5052267;28;20037;-62
2023/11/21 09:53:37;;;;;;;6.43;3.25;;;7.90;99.90;;;;;;5055964;28;20084;-62
2023/11/21 09:56:04;;;;;;;3.60;3.25;;;8.00;99.90;;;;;;4989180;28;20050;-62
2023/11/21 09:58:34;;;;;;;5.00;3.65;;;8.00;99.90;;;;;;4997933;28;20496;-62
2023/11/21 10:01:03;;;;;;;5.78;4.22;;;8.00;99.90;;;;;;5021011;28;20210;-62
2023/11/21 10:03:29;;;;;;;4.93;3.53;;;8.00;99.90;;;;;;5061325;28;20040;-62
2023/11/21 10:06:00;;;;;;;3.85;3.45;;;8.00;99.90;;;;;;5054572;28;20052;-62
2023/11/21 10:08:28;;;;;;;4.60;3.80;;;8.10;99.90;;;;;;5056366;28;20041;-62
2023/11/21 10:10:55;;;;;;;7.15;4.00;;;8.10;99.90;;;;;;5029432;28;20051;-61
2023/11/21 10:13:20;;;;;;;4.45;3.95;;;8.20;99.90;;;;;;5046278;28;20064;-62
2023/11/21 10:15:51;;;;;;;6.18;3.95;;;8.20;99.90;;;;;;5051999;28;20049;-62
2023/11/21 10:18:18;;;;;;;4.95;3.58;;;8.30;99.90;;;;;;5045688;28;20074;-62
2023/11/21 10:20:51;;;;;;;11.35;3.50;;;8.20;99.90;;;;;;5046687;28;20705;-62
2023/11/21 10:23:19;;;;;;;4.63;3.70;;;8.30;99.90;;;;;;5046387;28;20408;-61
2023/11/21 10:25:45;;;;;;;9.05;3.35;;;8.40;99.90;;;;;;5046357;28;20132;-62
2023/11/21 10:28:10;;;;;;;5.30;3.42;;;8.40;99.90;;;;;;5046345;28;20127;-62
2023/11/21 10:30:39;;;;;;;4.93;3.42;;;8.40;99.90;;;;;;5028213;28;20048;-62
2023/11/21 10:33:07;;;;;;;3.40;3.20;;;8.40;99.90;;;;;;5046770;28;20052;-62
2023/11/21 10:35:54;;;;;;;9.00;3.58;;;8.40;99.90;;;;;;5046522;28;20513;-62
2023/11/21 10:38:24;;;;;;;3.30;3.00;;;8.40;99.90;;;;;;5028246;28;20140;-62
2023/11/21 10:40:51;;;;;;;3.85;2.95;;;8.50;99.90;;;;;;5046797;28;20049;-62
2023/11/21 10:43:18;;;;;;;6.10;3.35;;;8.50;99.90;;;;;;5045523;28;20037;-62
2023/11/21 10:45:44;;;;;;;9.02;3.53;;;8.60;99.90;;;;;;5047362;28;20554;-62
2023/11/21 10:48:13;;;;;;;7.00;3.63;;;8.60;99.90;;;;;;5045721;28;20044;-62
2023/11/21 10:50:39;;;;;;;3.50;3.08;;;8.60;99.90;;;;;;5046591;28;20037;-62
2023/11/21 10:53:05;;;;;;;7.38;3.83;;;8.60;99.90;;;;;;5048842;28;20083;-62
2023/11/21 10:55:32;;;;;;;4.07;3.35;;;8.60;99.90;;;;;;5050752;28;20044;-62
2023/11/21 10:58:01;;;;;;;3.90;3.38;;;8.70;99.90;;;;;;5049080;28;20523;-62
2023/11/21 11:00:28;;;;;;;6.03;3.75;;;8.70;99.90;;;;;;5054951;28;20079;-62
2023/11/21 11:02:55;;;;;;;5.18;3.50;;;8.80;99.90;;;;;;5051760;28;20043;-62
2023/11/21 11:05:23;;;;;;;4.60;3.80;;;8.80;99.90;;;;;;5049670;28;20048;-62
2023/11/21 11:08:03;;;;;;;6.88;3.60;;;8.80;99.90;;;;;;5056160;28;20048;-61
2023/11/21 11:10:29;;;;;;;3.65;3.10;;;8.80;99.90;;;;;;5047382;28;20053;-61
2023/11/21 11:12:57;;;;;;;5.05;3.78;;;8.70;99.90;;;;;;5045899;28;20094;-62
2023/11/21 11:15:26;;;;;;;4.32;3.03;;;8.70;99.90;;;;;;5046074;28;20048;-62
2023/11/21 11:17:57;;;;;;;3.28;2.88;;;8.70;99.90;;;;;;5028045;28;20072;-61
2023/11/21 11:20:25;;;;;;;4.07;2.97;;;8.80;99.90;;;;;;5046953;28;20048;-61
2023/11/21 11:23:17;;;;;;;3.45;3.13;;;8.80;99.90;;;;;;5045702;28;20041;-62
2023/11/21 11:26:10;;;;;;;3.92;2.97;;;8.70;99.90;;;;;;5016127;28;20065;-61
2023/11/21 11:28:44;;;;;;;7.32;3.25;;;8.80;99.90;;;;;;5056501;28;20124;-63
2023/11/21 12:48:26;;;;;;;4.35;2.67;;;8.60;99.90;;;;;;5148217;22;20159;-60
2023/11/21 12:50:52;;;;;;;;;;;8.50;99.90;;;;;;5012897;28;1262217;-62
2023/11/21 12:53:19;;;;;;;4.05;2.75;;;8.50;99.90;;;;;;5061333;28;19924;-61
2023/11/21 12:55:49;;;;;;;5.72;3.20;;;8.50;99.90;;;;;;5063987;28;20047;-61
2023/11/21 12:58:15;;;;;;;3.80;3.35;;;8.40;99.90;;;;;;5064432;28;20080;-62
2023/11/21 13:00:46;;;;;;;3.47;2.72;;;8.40;99.90;;;;;;5028501;28;20056;-62
2023/11/21 13:03:16;;;;;;;3.92;3.08;;;8.50;99.90;;;;;;5063880;28;20045;-62
2023/11/21 13:05:48;;;;;;;3.40;3.08;;;8.50;99.90;;;;;;5062530;28;20432;-61
2023/11/21 13:08:18;;;;;;;5.32;2.78;;;8.60;99.90;;;;;;5063933;28;20126;-61
2023/11/21 13:10:46;;;;;;;5.68;2.72;;;8.60;99.90;;;;;;5064297;28;20504;-62
2023/11/21 13:13:17;;;;;;;5.90;2.45;;;8.60;99.90;;;;;;5062721;28;20047;-62
2023/11/21 13:16:05;;;;;;;5.45;2.47;;;8.70;99.90;;;;;;5064626;28;20052;-62
2023/11/21 13:18:31;;;;;;;2.85;2.30;;;8.60;99.90;;;;;;5050467;28;20119;-62
2023/11/21 13:20:59;;;;;;;6.40;2.42;;;8.70;99.90;;;;;;5061026;28;20041;-62
2023/11/21 13:23:26;;;;;;;6.05;2.55;;;8.70;99.90;;;;;;5049337;28;20052;-62
2023/11/21 13:25:53;;;;;;;8.02;2.20;;;8.70;99.90;;;;;;5063345;28;20111;-62
2023/11/21 13:28:20;;;;;;;5.93;2.58;;;8.60;99.90;;;;;;5045290;28;20041;-62
2023/11/21 13:30:48;;;;;;;2.72;2.00;;;8.60;99.90;;;;;;5057935;28;20507;-61
2023/11/21 13:33:17;;;;;;;2.13;1.90;;;8.50;99.90;;;;;;5063657;28;20041;-62
2023/11/21 13:35:48;;;;;;;1.77;1.63;;;8.60;99.90;;;;;;5045143;28;20037;-62
2023/11/21 13:38:18;;;;;;;2.90;1.80;;;8.50;99.90;;;;;;5063363;28;20044;-62
2023/11/21 13:40:49;;;;;;;;;;;8.40;99.90;;;;;;5045562;28;20421;-62
2023/11/21 13:43:18;;;;;;;2.35;1.75;;;8.40;99.90;;;;;;5034963;28;20294;-62
2023/11/21 13:45:45;;;;;;;2.72;1.65;;;8.40;99.90;;;;;;5032739;28;20449;-61
2023/11/21 13:48:28;;;;;;;2.80;2.08;;;8.30;99.90;;;;;;5048845;28;20523;-62
2023/11/21 13:51:10;;;;;;;4.10;1.88;;;8.30;99.90;;;;;;5047127;28;20064;-62
2023/11/21 13:53:37;;;;;;;2.33;1.90;;;8.30;99.90;;;;;;5029882;28;20174;-61
2023/11/21 13:56:03;;;;;;;5.43;2.05;;;8.30;99.90;;;;;;5049695;28;20067;-61
2023/11/21 13:58:44;;;;;;;3.42;1.92;;;8.30;99.90;;;;;;5031500;28;20052;-62
2023/11/21 14:01:41;;;;;;;2.28;1.70;;;8.30;99.90;;;;;;5048834;28;20057;-62
2023/11/21 14:06:50;;;;;;;3.67;1.90;;;8.30;99.90;;;;;;5050032;28;20083;-61
2023/11/21 14:09:24;;;;;;;4.75;2.22;;;8.20;99.90;;;;;;5047887;28;20064;-62
2023/11/21 14:11:55;;;;;;;4.80;2.40;;;8.20;99.90;;;;;;5049630;28;20045;-61
2023/11/21 14:14:24;;;;;;;4.82;2.03;;;8.20;99.90;;;;;;5051182;28;20059;-61